createdAt,value
2019-04-16T00:00:06.537Z,101424.17
2019-04-16T00:05:02.421Z,101428.17
2019-04-16T00:10:04.057Z,101424.16
2019-04-16T00:14:59.431Z,101416.60
2019-04-16T00:19:53.531Z,101415.27
2019-04-16T00:24:48.292Z,101408.52
2019-04-16T00:29:42.278Z,101405.55
2019-04-16T00:34:36.438Z,101397.61
2019-04-16T00:39:30.447Z,101397.42
2019-04-16T00:44:24.641Z,101388.78
2019-04-16T00:49:18.621Z,101391.06
2019-04-16T00:54:12.633Z,101385.52
2019-04-16T00:59:06.624Z,101388.95
2019-04-16T01:04:00.618Z,101389.47
2019-04-16T01:08:55.251Z,101385.55
2019-04-16T01:13:49.406Z,101389.37
2019-04-16T01:18:43.333Z,101382.87
2019-04-16T01:23:37.301Z,101381.16
2019-04-16T01:28:36.282Z,101380.38
2019-04-16T01:33:48.722Z,101374.06
2019-04-16T01:38:50.349Z,101367.80
2019-04-16T01:43:44.327Z,101360.25
2019-04-16T01:48:39.655Z,101362.88
2019-04-16T01:53:33.808Z,101351.44
2019-04-16T01:58:27.855Z,101353.99
2019-04-16T02:03:21.890Z,101354.16
2019-04-16T02:08:15.840Z,101350.47
2019-04-16T02:13:14.566Z,101345.91
2019-04-16T02:18:06.085Z,101346.46
2019-04-16T02:23:00.047Z,101345.30
2019-04-16T02:27:54.268Z,101337.34
2019-04-16T02:32:49.895Z,101334.11
2019-04-16T02:37:43.866Z,101333.48
2019-04-16T02:42:38.124Z,101335.64
2019-04-16T02:47:32.266Z,101330.61
2019-04-16T02:52:37.010Z,101325.11
2019-04-16T02:57:48.273Z,101329.14
2019-04-16T03:02:44.244Z,101327.88
2019-04-16T03:07:38.220Z,101320.75
2019-04-16T03:12:32.382Z,101321.00
2019-04-16T03:17:28.271Z,101317.52
2019-04-16T03:22:22.248Z,101315.23
2019-04-16T03:27:16.340Z,101319.51
2019-04-16T03:32:14.295Z,101317.52
2019-04-16T03:37:06.363Z,101316.84
2019-04-16T03:42:00.366Z,101310.20
2019-04-16T03:46:54.527Z,101309.22
2019-04-16T03:51:48.489Z,101307.30
2019-04-16T03:56:42.439Z,101298.48
2019-04-16T04:01:36.428Z,101296.09
2019-04-16T04:06:30.421Z,101294.30
2019-04-16T04:11:24.386Z,101286.33
2019-04-16T04:16:18.527Z,101291.84
2019-04-16T04:21:12.670Z,101291.70
2019-04-16T04:26:08.919Z,101291.88
2019-04-16T04:31:02.680Z,101296.67
2019-04-16T04:35:56.624Z,101299.24
2019-04-16T04:40:51.541Z,101301.41
2019-04-16T04:45:45.633Z,101298.47
2019-04-16T04:50:39.616Z,101305.42
2019-04-16T04:55:33.934Z,101286.97
2019-04-16T05:00:27.906Z,101295.49
2019-04-16T05:05:26.764Z,101292.62
2019-04-16T05:10:20.726Z,101297.34
2019-04-16T05:15:14.687Z,101305.92
2019-04-16T05:20:08.845Z,101312.16
2019-04-16T05:25:04.062Z,101316.02
2019-04-16T05:29:58.017Z,101317.51
2019-04-16T05:34:52.107Z,101316.84
2019-04-16T05:39:46.175Z,101315.64
2019-04-16T05:44:40.199Z,101326.83
2019-04-16T05:49:34.182Z,101329.73
2019-04-16T05:54:32.769Z,101324.39
2019-04-16T05:59:26.745Z,101320.09
2019-04-16T06:04:24.313Z,101320.31
2019-04-16T06:09:16.583Z,101319.88
2019-04-16T06:14:17.033Z,101315.08
2019-04-16T06:19:11.580Z,101318.50
2019-04-16T06:24:08.008Z,101320.38
2019-04-16T06:29:22.081Z,101316.78
2019-04-16T06:34:27.094Z,101312.23
2019-04-16T06:39:22.966Z,101301.85
2019-04-16T06:44:19.047Z,101307.64
2019-04-16T06:49:24.070Z,101307.77
2019-04-16T06:54:32.257Z,101305.13
2019-04-16T06:59:29.851Z,101302.27
2019-04-16T07:04:24.388Z,101308.27
2019-04-16T07:09:23.395Z,101294.66
2019-04-16T07:14:16.805Z,101283.16
2019-04-16T07:19:11.656Z,101274.53
2019-04-16T07:24:05.897Z,101257.64
2019-04-16T07:29:04.811Z,101255.72
2019-04-16T07:34:12.821Z,101252.30
2019-04-16T07:39:28.857Z,101245.01
2019-04-16T07:44:12.696Z,101248.28
2019-04-16T07:49:26.377Z,101243.47
2019-04-16T07:54:35.081Z,101236.05
2019-04-16T07:59:31.988Z,101234.95
2019-04-16T08:04:29.199Z,101235.70
2019-04-16T08:09:23.257Z,101233.91
2019-04-16T08:14:17.207Z,101238.34
2019-04-16T08:19:12.236Z,101232.88
2019-04-16T08:24:09.299Z,101232.66
2019-04-16T08:29:03.457Z,101232.85
2019-04-16T08:33:57.414Z,101245.02
2019-04-16T08:38:51.388Z,101249.58
2019-04-16T08:43:45.494Z,101255.03
2019-04-16T08:48:39.708Z,101235.31
2019-04-16T08:53:35.578Z,101223.87
2019-04-16T08:58:29.703Z,101225.77
2019-04-16T09:03:26.859Z,101226.23
2019-04-16T09:08:35.332Z,101220.71
2019-04-16T09:13:31.286Z,101214.84
2019-04-16T09:18:30.159Z,101216.20
2019-04-16T09:23:26.667Z,101211.29
2019-04-16T09:28:25.950Z,101205.95
2019-04-16T09:33:26.276Z,101204.58
2019-04-16T09:38:22.209Z,101212.59
2019-04-16T09:43:18.590Z,101199.59
2019-04-16T09:48:12.706Z,101198.36
2019-04-16T09:53:06.943Z,101199.38
2019-04-16T09:58:05.866Z,101198.45
2019-04-16T10:03:00.845Z,101201.88
2019-04-16T10:07:57.000Z,101195.16
2019-04-16T10:12:50.868Z,101195.83
2019-04-16T10:17:44.833Z,101195.20
2019-04-16T10:22:38.936Z,101183.73
2019-04-16T10:27:37.543Z,101180.70
2019-04-16T10:32:31.539Z,101171.33
2019-04-16T10:37:25.638Z,101168.02
2019-04-16T10:42:27.477Z,101166.30
2019-04-16T10:47:23.541Z,101162.80
2019-04-16T10:52:36.147Z,101149.30
2019-04-16T10:57:50.384Z,101145.06
2019-04-16T11:02:52.025Z,101139.32
2019-04-16T11:07:50.902Z,101136.70
2019-04-16T11:12:45.081Z,101132.94
2019-04-16T11:17:39.296Z,101121.27
2019-04-16T11:22:33.253Z,101115.66
2019-04-16T11:27:27.484Z,101119.87
2019-04-16T11:32:30.551Z,101114.12
2019-04-16T11:37:24.519Z,101108.63
2019-04-16T11:42:18.635Z,101097.09
2019-04-16T11:47:12.858Z,101099.16
2019-04-16T11:52:07.150Z,101094.13
2019-04-16T11:57:01.099Z,101092.27
2019-04-16T12:01:59.983Z,101102.58
2019-04-16T12:07:11.043Z,101097.87
2019-04-16T12:12:19.016Z,101100.06
2019-04-16T12:17:15.143Z,101094.37
2019-04-16T12:22:15.930Z,101089.59
2019-04-16T12:27:28.632Z,101098.25
2019-04-16T12:32:30.705Z,101095.05
2019-04-16T12:37:43.629Z,101098.30
2019-04-16T12:42:42.609Z,101101.08
2019-04-16T12:47:41.634Z,101094.21
2019-04-16T12:52:55.569Z,101100.09
2019-04-16T12:58:00.903Z,101103.11
2019-04-16T13:02:56.807Z,101111.52
2019-04-16T13:07:55.441Z,101104.30
2019-04-16T13:12:57.335Z,101094.19
2019-04-16T13:17:59.246Z,101102.42
2019-04-16T13:22:58.166Z,101095.72
2019-04-16T13:27:52.662Z,101090.87
2019-04-16T13:32:46.625Z,101094.15
2019-04-16T13:37:40.691Z,101099.42
2019-04-16T13:42:34.803Z,101099.02
2019-04-16T13:47:28.886Z,101095.05
2019-04-16T13:52:25.251Z,101083.44
2019-04-16T13:57:23.398Z,101082.79
2019-04-16T14:02:22.457Z,101072.26
2019-04-16T14:07:16.581Z,101084.42
2019-04-16T14:12:10.564Z,101077.66
2019-04-16T14:17:09.694Z,101075.42
2019-04-16T14:22:00.672Z,101074.84
2019-04-16T14:26:54.826Z,101077.03
2019-04-16T14:31:49.027Z,101078.52
2019-04-16T14:36:43.691Z,101077.30
2019-04-16T14:41:37.788Z,101070.95
2019-04-16T14:46:31.912Z,101074.50
2019-04-16T14:51:25.892Z,101071.86
2019-04-16T14:56:21.785Z,101065.35
2019-04-16T15:01:34.108Z,101059.68
2019-04-16T15:06:29.976Z,101059.11
2019-04-16T15:11:28.652Z,101062.00
2019-04-16T15:16:27.393Z,101056.75
2019-04-16T15:21:29.061Z,101062.66
2019-04-16T15:26:34.293Z,101065.62
2019-04-16T15:31:33.609Z,101055.80
2019-04-16T15:36:32.312Z,101059.69
2019-04-16T15:41:45.387Z,101054.16
2019-04-16T15:46:57.982Z,101052.33
2019-04-16T15:52:00.138Z,101062.50
2019-04-16T15:56:56.188Z,101067.37
2019-04-16T16:02:09.146Z,101070.94
2019-04-16T16:07:07.928Z,101080.02
2019-04-16T16:12:05.599Z,101080.02
2019-04-16T16:16:59.581Z,101076.80
2019-04-16T16:21:53.560Z,101127.22
2019-04-16T16:26:47.681Z,101127.36
2019-04-16T16:31:41.794Z,101140.52
2019-04-16T16:36:36.830Z,101149.67
2019-04-16T16:41:31.697Z,101153.02
2019-04-16T16:46:30.651Z,101184.14
2019-04-16T16:51:25.075Z,101197.13
2019-04-16T16:56:24.279Z,101205.97
2019-04-16T17:01:34.732Z,101206.97
2019-04-16T17:06:30.552Z,101236.92
2019-04-16T17:11:24.674Z,101232.77
2019-04-16T17:16:18.761Z,101232.94
2019-04-16T17:21:12.860Z,101240.48
2019-04-16T17:26:06.832Z,101239.06
2019-04-16T17:31:00.936Z,101258.70
2019-04-16T17:35:55.331Z,101264.89
2019-04-16T17:41:00.489Z,101274.75
2019-04-16T17:45:56.574Z,101286.64
2019-04-16T17:51:09.200Z,101296.58
2019-04-16T17:56:17.755Z,101299.81
2019-04-16T18:01:19.782Z,101320.28
2019-04-16T18:06:18.332Z,101317.98
2019-04-16T18:11:19.987Z,101332.72
2019-04-16T18:16:21.829Z,101345.14
2019-04-16T18:21:23.512Z,101362.26
2019-04-16T18:26:37.577Z,101363.31
2019-04-16T18:31:39.461Z,101371.00
2019-04-16T18:36:38.407Z,101377.59
2019-04-16T18:41:40.154Z,101380.76
2019-04-16T18:46:41.825Z,101379.43
2019-04-16T18:51:36.148Z,101390.38
2019-04-16T18:56:30.246Z,101392.77
2019-04-16T19:01:29.690Z,101395.64
2019-04-16T19:06:22.335Z,101400.45
2019-04-16T19:11:20.236Z,101404.30
2019-04-16T19:16:12.972Z,101402.77
2019-04-16T19:21:07.191Z,101410.44
2019-04-16T19:26:01.415Z,101420.41
2019-04-16T19:30:55.434Z,101426.82
2019-04-16T19:35:51.957Z,101423.90
2019-04-16T19:40:47.718Z,101425.89
2019-04-16T19:45:43.671Z,101438.84
2019-04-16T19:50:37.890Z,101440.95
2019-04-16T19:55:32.075Z,101445.56
2019-04-16T20:00:26.397Z,101454.68
2019-04-16T20:05:20.774Z,101454.98
2019-04-16T20:10:15.127Z,101457.30
2019-04-16T20:15:09.856Z,101460.39
2019-04-16T20:20:04.874Z,101463.83
2019-04-16T20:24:59.274Z,101465.59
2019-04-16T20:29:53.579Z,101471.41
2019-04-16T20:34:47.709Z,101465.22
2019-04-16T20:39:41.783Z,101469.00
2019-04-16T20:44:35.875Z,101472.66
2019-04-16T20:49:30.019Z,101469.39
2019-04-16T20:54:24.113Z,101474.98
2019-04-16T20:59:18.214Z,101478.13
2019-04-16T21:04:12.377Z,101481.88
2019-04-16T21:09:06.889Z,101482.25
2019-04-16T21:14:01.222Z,101482.26
2019-04-16T21:18:55.521Z,101491.25
2019-04-16T21:23:49.782Z,101495.95
2019-04-16T21:28:45.659Z,101489.16
2019-04-16T21:33:44.344Z,101487.82
2019-04-16T21:38:46.154Z,101491.71
2019-04-16T21:43:40.470Z,101502.46
2019-04-16T21:48:34.512Z,101508.38
2019-04-16T21:53:28.844Z,101509.56
2019-04-16T21:58:23.104Z,101509.80
2019-04-16T22:03:27.943Z,101513.68
2019-04-16T22:08:22.147Z,101509.88
2019-04-16T22:13:19.166Z,101516.18
2019-04-16T22:18:11.979Z,101522.83
2019-04-16T22:23:06.031Z,101526.26
2019-04-16T22:28:00.035Z,101528.61
2019-04-16T22:32:54.041Z,101533.09
2019-04-16T22:37:48.016Z,101534.73
2019-04-16T22:42:46.842Z,101536.17
2019-04-16T22:47:42.795Z,101544.72
2019-04-16T22:52:36.773Z,101541.54
2019-04-16T22:57:31.189Z,101544.63
2019-04-16T23:02:27.827Z,101552.02
2019-04-16T23:07:21.823Z,101551.17
2019-04-16T23:12:15.939Z,101553.31
2019-04-16T23:17:13.142Z,101554.64
2019-04-16T23:22:06.230Z,101555.73
2019-04-16T23:27:04.259Z,101563.49
2019-04-16T23:31:56.308Z,101552.52
2019-04-16T23:36:50.389Z,101549.02
2019-04-16T23:41:47.957Z,101556.77
2019-04-16T23:46:44.929Z,101557.81
2019-04-16T23:51:40.855Z,101555.92
2019-04-16T23:56:39.827Z,101553.56
